Terminal Aerodrome Forecast
Issued by NWS Sioux Falls, SD

Home | Current Version | Previous Version | Text Only | Print | Product List | Glossary Off
Versions: 1 2 3 4 5 6 7 8 9 10 11 12 13 14

000
FTUS43 KFSD 162346
TAFHON
TAF
KHON 162346Z 1700/1724 15017G30KT P6SM SCT200
     FM170800 17012KT P6SM SCT200
     FM171100 23008KT P6SM BKN200
     FM171300 27007KT P6SM BKN150
     FM171400 33008KT P6SM BKN080
     FM172100 36009KT P6SM BKN100=

USA.gov is the U.S. government's official web portal to all federal, state and local government web resources and services.